createdAt,value
2023-03-23T15:58:55.812Z,99527.48
2023-03-23T16:02:27.120Z,99525.52
2023-03-23T16:05:55.570Z,99515.52
2023-03-23T16:09:23.264Z,99507.00
2023-03-23T16:12:50.659Z,99511.79
2023-03-23T16:16:20.107Z,99508.97
2023-03-23T16:19:47.005Z,99502.81
2023-03-23T16:23:13.716Z,99520.12
2023-03-23T16:26:42.178Z,99531.57
2023-03-23T16:30:19.137Z,99532.54
2023-03-23T16:33:49.228Z,99535.73
2023-03-23T16:37:17.163Z,99541.22
2023-03-23T16:40:48.645Z,99538.88
2023-03-23T16:44:15.143Z,99554.36
2023-03-23T16:47:42.660Z,99562.35
2023-03-23T16:51:10.070Z,99558.47
2023-03-23T16:54:36.703Z,99553.13
2023-03-23T16:58:16.335Z,99544.38
2023-03-23T17:01:44.279Z,99551.17
2023-03-23T17:05:13.821Z,99549.94
2023-03-23T17:08:40.812Z,99546.90
2023-03-23T17:12:08.896Z,99547.89
2023-03-23T17:15:54.245Z,99555.89
2023-03-23T17:19:21.523Z,99564.09
2023-03-23T17:22:49.615Z,99561.53
2023-03-23T17:26:16.450Z,99572.45
2023-03-23T17:29:43.338Z,99574.30
2023-03-23T17:33:11.276Z,99570.48
2023-03-23T17:36:38.425Z,99569.52
2023-03-23T17:40:08.633Z,99563.72
2023-03-23T17:43:36.578Z,99564.88
2023-03-23T17:47:04.731Z,99560.70
2023-03-23T17:50:32.030Z,99565.07
2023-03-23T17:53:59.337Z,99568.02
2023-03-23T17:57:26.349Z,99575.16
2023-03-23T18:00:53.284Z,99579.01
2023-03-23T18:04:19.884Z,99573.52
2023-03-23T18:07:47.443Z,99564.98
2023-03-23T18:11:14.167Z,99567.18
2023-03-23T18:14:40.887Z,99578.59
2023-03-23T18:18:08.764Z,99586.63
2023-03-23T18:21:35.473Z,99599.30
2023-03-23T18:25:02.972Z,99599.38
2023-03-23T18:28:29.585Z,99602.72
2023-03-23T18:31:56.423Z,99606.89
2023-03-23T18:35:24.030Z,99609.73
2023-03-23T18:38:51.605Z,99610.34
2023-03-23T18:42:18.685Z,99609.07
2023-03-23T18:45:49.754Z,99607.23
2023-03-23T18:49:16.778Z,99599.02
2023-03-23T18:52:43.604Z,99597.41
2023-03-23T18:56:13.838Z,99597.08
2023-03-23T18:59:41.403Z,99600.39
2023-03-23T19:03:11.460Z,99635.12
2023-03-23T19:06:38.540Z,99667.42
2023-03-23T19:10:06.498Z,99667.23
2023-03-23T19:13:37.545Z,99673.30
2023-03-23T19:17:06.399Z,99670.34
2023-03-23T19:21:07.807Z,99674.46
2023-03-23T19:24:20.769Z,99663.60
2023-03-23T19:28:27.534Z,99657.64
2023-03-23T19:31:34.756Z,99665.98
2023-03-23T19:35:03.384Z,99668.95
2023-03-23T19:38:30.981Z,99674.55
2023-03-23T19:41:57.879Z,99668.64
2023-03-23T19:45:25.258Z,99654.83
2023-03-23T19:48:52.305Z,99663.86
2023-03-23T19:52:20.305Z,99661.29
2023-03-23T19:55:50.261Z,99671.29
2023-03-23T19:59:18.519Z,99675.61
2023-03-23T20:02:46.115Z,99681.29
2023-03-23T20:06:22.735Z,99674.47
2023-03-23T20:09:52.598Z,99677.17
2023-03-23T20:13:20.232Z,99682.29
2023-03-23T20:16:47.659Z,99691.88
2023-03-23T20:20:15.760Z,99680.92
2023-03-23T20:23:45.200Z,99685.20
2023-03-23T20:27:13.491Z,99687.52
2023-03-23T20:30:40.447Z,99697.61
2023-03-23T20:34:10.842Z,99709.84
2023-03-23T20:37:41.296Z,99726.06
2023-03-23T20:41:12.281Z,99728.41
2023-03-23T20:44:39.904Z,99728.87
2023-03-23T20:48:09.830Z,99729.73
2023-03-23T20:51:37.519Z,99732.45
2023-03-23T20:55:06.164Z,99725.95
2023-03-23T20:58:34.651Z,99729.94
2023-03-23T21:02:03.036Z,99733.35
2023-03-23T21:05:30.275Z,99734.70
2023-03-23T21:08:58.898Z,99737.27
2023-03-23T21:12:26.206Z,99729.63
2023-03-23T21:15:55.276Z,99734.58
2023-03-23T21:19:27.768Z,99729.98
2023-03-23T21:22:55.147Z,99723.84
2023-03-23T21:26:25.694Z,99725.73
2023-03-23T21:30:18.578Z,99731.08
2023-03-23T21:33:45.670Z,99734.48
2023-03-23T21:37:15.370Z,99738.08
2023-03-23T21:40:46.721Z,99749.21
2023-03-23T21:44:15.604Z,99754.61
2023-03-23T21:47:43.420Z,99756.42
2023-03-23T21:51:16.521Z,99752.26
2023-03-23T21:54:43.879Z,99753.77
2023-03-23T21:58:11.326Z,99754.02
2023-03-23T22:01:40.613Z,99779.12
2023-03-23T22:05:08.404Z,99772.04
2023-03-23T22:08:35.631Z,99768.73
2023-03-23T22:12:02.712Z,99748.53
2023-03-23T22:15:29.775Z,99736.42
2023-03-23T22:18:59.668Z,99739.06
2023-03-23T22:22:28.022Z,99741.58
2023-03-23T22:25:55.980Z,99742.70
2023-03-23T22:29:23.212Z,99735.55
2023-03-23T22:32:50.277Z,99736.65
2023-03-23T22:36:17.896Z,99736.95
2023-03-23T22:39:47.040Z,99734.74
2023-03-23T22:43:13.980Z,99738.14
2023-03-23T22:46:41.167Z,99745.52
2023-03-23T22:50:09.542Z,99744.86
2023-03-23T22:53:36.734Z,99736.52
2023-03-23T22:57:09.064Z,99729.85
2023-03-23T23:00:43.887Z,99722.50
2023-03-23T23:04:16.138Z,99730.70
2023-03-23T23:07:45.127Z,99741.50
2023-03-23T23:11:21.804Z,99736.18
2023-03-23T23:14:49.083Z,99723.71
2023-03-23T23:18:17.880Z,99725.53
2023-03-23T23:21:44.841Z,99721.29
2023-03-23T23:25:11.736Z,99715.61
2023-03-23T23:28:39.345Z,99717.00
2023-03-23T23:32:07.058Z,99715.88
2023-03-23T23:35:35.321Z,99727.17
2023-03-23T23:39:07.968Z,99731.27
2023-03-23T23:42:36.379Z,99726.93
2023-03-23T23:46:09.447Z,99718.95
2023-03-23T23:49:36.238Z,99725.36
2023-03-23T23:53:05.299Z,99718.50
2023-03-23T23:56:32.901Z,99708.51
